createdAt,value
2018-12-22T00:02:25.107Z,11.56
2018-12-22T00:04:57.201Z,11.54
2018-12-22T00:07:29.602Z,11.46
2018-12-22T00:10:02.012Z,11.45
2018-12-22T00:12:34.372Z,11.53
2018-12-22T00:15:08.558Z,11.57
2018-12-22T00:17:40.805Z,11.48
2018-12-22T00:20:13.234Z,11.46
2018-12-22T00:22:45.290Z,11.56
2018-12-22T00:25:17.483Z,11.60
2018-12-22T00:27:49.731Z,11.62
2018-12-22T00:30:24.478Z,11.61
2018-12-22T00:32:56.796Z,11.58
2018-12-22T00:35:26.820Z,11.52
2018-12-22T00:37:56.901Z,11.56
2018-12-22T00:40:27.223Z,11.52
2018-12-22T00:43:00.140Z,11.61
2018-12-22T00:45:32.199Z,11.73
2018-12-22T00:48:02.677Z,11.75
2018-12-22T00:50:37.393Z,11.73
2018-12-22T00:53:09.871Z,11.79
2018-12-22T00:55:42.295Z,11.76
2018-12-22T00:58:14.596Z,11.78
2018-12-22T01:00:46.748Z,11.80
2018-12-22T01:03:19.273Z,11.92
2018-12-22T01:05:51.534Z,11.91
2018-12-22T01:08:23.802Z,11.94
2018-12-22T01:10:53.851Z,11.93
2018-12-22T01:14:27.334Z,11.94
2018-12-22T01:16:59.553Z,11.87
2018-12-22T01:19:29.926Z,11.83
2018-12-22T01:22:02.355Z,11.84
2018-12-22T01:24:36.632Z,11.91
2018-12-22T01:27:08.229Z,11.89
2018-12-22T01:29:40.324Z,11.96
2018-12-22T01:32:14.810Z,11.89
2018-12-22T01:34:46.539Z,11.90
2018-12-22T01:37:21.060Z,11.98
2018-12-22T01:39:52.971Z,11.90
2018-12-22T01:42:23.224Z,11.88
2018-12-22T01:44:56.579Z,11.89
2018-12-22T01:47:28.932Z,11.87
2018-12-22T01:50:01.177Z,11.82
2018-12-22T01:52:33.548Z,11.98
2018-12-22T01:55:06.622Z,11.73
2018-12-22T01:57:38.408Z,11.76
2018-12-22T02:00:10.915Z,11.74
2018-12-22T02:02:42.790Z,11.71
2018-12-22T02:05:12.932Z,11.65
2018-12-22T02:07:44.867Z,11.61
2018-12-22T02:10:17.146Z,11.63
2018-12-22T02:12:49.205Z,11.64
2018-12-22T02:15:21.708Z,11.50
2018-12-22T02:17:56.581Z,11.33
2018-12-22T02:20:28.877Z,10.78
2018-12-22T02:23:01.239Z,10.62
2018-12-22T02:25:33.405Z,10.40
2018-12-22T02:28:05.505Z,10.21
2018-12-22T02:31:19.496Z,10.01
2018-12-22T02:33:51.483Z,9.76
2018-12-22T02:36:23.568Z,9.60
2018-12-22T02:38:55.955Z,9.50
2018-12-22T02:41:28.392Z,9.44
2018-12-22T02:44:00.527Z,9.35
2018-12-22T02:46:32.676Z,9.44
2018-12-22T02:49:04.195Z,9.46
2018-12-22T02:51:36.373Z,9.48
2018-12-22T02:54:08.506Z,9.49
2018-12-22T02:56:41.008Z,9.49
2018-12-22T02:59:13.155Z,9.43
2018-12-22T03:01:45.273Z,9.49
2018-12-22T03:04:15.551Z,9.52
2018-12-22T03:06:45.795Z,9.46
2018-12-22T03:09:18.144Z,9.56
2018-12-22T03:11:48.626Z,9.56
2018-12-22T03:14:21.043Z,9.54
2018-12-22T03:16:53.308Z,9.30
2018-12-22T03:19:25.403Z,9.09
2018-12-22T03:21:57.654Z,8.96
2018-12-22T03:24:27.668Z,8.84
2018-12-22T03:27:00.083Z,8.80
2018-12-22T03:29:30.144Z,8.74
2018-12-22T03:32:04.822Z,8.75
2018-12-22T03:34:37.088Z,8.78
2018-12-22T03:37:09.393Z,8.79
2018-12-22T03:39:41.934Z,8.79
2018-12-22T03:42:14.389Z,8.83
2018-12-22T03:44:46.566Z,8.86
2018-12-22T03:47:36.442Z,8.95
2018-12-22T03:50:11.248Z,8.95
2018-12-22T03:52:43.685Z,8.95
2018-12-22T03:55:15.807Z,8.86
2018-12-22T03:57:48.179Z,8.79
2018-12-22T04:00:20.469Z,8.73
2018-12-22T04:02:53.004Z,8.68
2018-12-22T04:05:25.189Z,8.63
2018-12-22T04:07:57.419Z,8.66
2018-12-22T04:10:29.608Z,8.73
2018-12-22T04:13:01.876Z,8.71
2018-12-22T04:15:33.985Z,8.66
2018-12-22T04:18:05.867Z,8.58
2018-12-22T04:20:37.952Z,8.55
2018-12-22T04:23:10.334Z,8.48
2018-12-22T04:25:42.578Z,8.53
2018-12-22T04:28:13.051Z,8.53
2018-12-22T04:30:43.417Z,8.52
2018-12-22T04:33:15.689Z,8.48
2018-12-22T04:35:47.854Z,8.50
2018-12-22T04:38:21.230Z,8.51
2018-12-22T04:40:53.552Z,8.49
2018-12-22T04:43:25.684Z,8.49
2018-12-22T04:46:00.234Z,8.46
2018-12-22T04:48:31.985Z,8.48
2018-12-22T04:51:03.964Z,8.53
2018-12-22T04:53:36.136Z,8.47
2018-12-22T04:56:08.111Z,8.46
2018-12-22T04:58:40.336Z,8.50
2018-12-22T05:01:14.989Z,8.53
2018-12-22T05:06:38.480Z,8.53
2018-12-22T05:09:10.834Z,8.62
2018-12-22T05:11:43.241Z,8.57
2018-12-22T05:14:15.294Z,8.58
2018-12-22T05:16:47.587Z,8.67
2018-12-22T05:19:19.696Z,8.63
2018-12-22T05:21:51.944Z,8.67
2018-12-22T05:24:24.203Z,8.64
2018-12-22T05:26:55.828Z,8.60
2018-12-22T05:29:30.324Z,8.65
2018-12-22T05:32:02.214Z,8.66
2018-12-22T05:34:34.631Z,8.69
2018-12-22T05:37:06.795Z,8.72
2018-12-22T05:39:39.045Z,8.77
2018-12-22T05:42:09.806Z,8.79
2018-12-22T05:44:41.733Z,8.75
2018-12-22T05:47:13.899Z,8.84
2018-12-22T05:49:46.052Z,8.78
2018-12-22T05:52:18.431Z,8.82
2018-12-22T05:54:50.438Z,8.98
2018-12-22T05:57:22.749Z,8.96
2018-12-22T06:00:00.386Z,8.89
2018-12-22T06:02:29.426Z,8.95
2018-12-22T06:05:01.519Z,9.00
2018-12-22T06:07:33.763Z,9.03
2018-12-22T06:10:06.211Z,9.07
2018-12-22T06:12:37.888Z,9.08
2018-12-22T06:15:10.388Z,9.09
2018-12-22T06:17:42.363Z,9.13
2018-12-22T06:20:14.594Z,9.18
2018-12-22T06:22:44.772Z,9.13
2018-12-22T06:25:16.990Z,9.12
2018-12-22T06:27:49.361Z,9.16
2018-12-22T06:30:21.798Z,9.17
2018-12-22T06:32:52.046Z,9.27
2018-12-22T06:35:22.161Z,9.28
2018-12-22T06:37:54.629Z,9.30
2018-12-22T06:40:26.505Z,9.28
2018-12-22T06:42:56.788Z,9.26
2018-12-22T06:45:28.916Z,9.29
2018-12-22T06:48:01.054Z,9.25
2018-12-22T06:50:33.362Z,9.24
2018-12-22T06:53:05.860Z,9.26
2018-12-22T06:55:38.489Z,9.22
2018-12-22T06:58:10.172Z,9.21
2018-12-22T07:00:42.404Z,9.30
2018-12-22T07:03:14.761Z,9.22
2018-12-22T07:05:46.958Z,9.26
2018-12-22T07:08:17.416Z,9.42
2018-12-22T07:10:48.968Z,9.42
2018-12-22T07:13:21.225Z,9.49
2018-12-22T07:15:53.476Z,9.45
2018-12-22T07:18:25.408Z,9.49
2018-12-22T07:20:55.617Z,9.53
2018-12-22T07:23:28.030Z,9.55
2018-12-22T07:26:00.955Z,9.62
2018-12-22T07:28:31.109Z,9.58
2018-12-22T07:31:05.413Z,9.65
2018-12-22T07:33:37.773Z,9.61
2018-12-22T07:36:10.238Z,9.64
2018-12-22T07:38:45.998Z,9.60
2018-12-22T07:41:17.503Z,9.59
2018-12-22T07:43:49.074Z,9.52
2018-12-22T07:46:21.290Z,9.45
2018-12-22T07:48:53.398Z,9.40
2018-12-22T07:51:25.544Z,9.26
2018-12-22T07:54:00.104Z,9.16
2018-12-22T07:56:32.142Z,9.03
2018-12-22T07:59:04.544Z,8.95
2018-12-22T08:01:36.550Z,8.97
2018-12-22T08:04:08.964Z,8.97
2018-12-22T08:06:41.129Z,8.93
2018-12-22T08:09:13.610Z,8.92
2018-12-22T08:11:43.873Z,8.87
2018-12-22T08:14:14.160Z,8.82
2018-12-22T08:16:45.753Z,8.87
2018-12-22T08:19:15.925Z,8.81
2018-12-22T08:21:48.073Z,8.71
2018-12-22T08:24:20.469Z,8.61
2018-12-22T08:26:52.664Z,8.58
2018-12-22T08:29:24.893Z,8.53
2018-12-22T08:31:59.400Z,8.52
2018-12-22T08:34:31.375Z,8.50
2018-12-22T08:37:05.817Z,8.44
2018-12-22T08:39:37.319Z,8.43
2018-12-22T08:42:09.696Z,8.46
2018-12-22T08:44:42.892Z,8.44
2018-12-22T08:47:14.640Z,8.36
2018-12-22T08:49:46.620Z,8.30
2018-12-22T08:52:16.784Z,8.23
2018-12-22T08:54:49.121Z,8.25
2018-12-22T08:57:21.318Z,8.32
2018-12-22T08:59:54.271Z,8.27
2018-12-22T09:02:26.805Z,8.30
2018-12-22T09:04:59.320Z,8.30
2018-12-22T09:07:29.473Z,8.32
2018-12-22T09:10:01.710Z,8.22
2018-12-22T09:12:33.644Z,8.23
2018-12-22T09:15:09.199Z,8.18
2018-12-22T09:17:41.751Z,8.23
2018-12-22T09:20:13.705Z,8.19
2018-12-22T09:22:46.116Z,8.22
2018-12-22T09:25:18.300Z,8.22
2018-12-22T09:27:50.467Z,8.18
2018-12-22T09:30:20.449Z,8.22
2018-12-22T09:32:50.967Z,8.21
2018-12-22T09:35:23.360Z,8.21
2018-12-22T09:37:55.456Z,8.27
2018-12-22T09:40:27.525Z,8.17
2018-12-22T09:42:59.780Z,8.17
2018-12-22T09:45:32.844Z,8.04
2018-12-22T09:48:03.231Z,8.11
2018-12-22T09:50:35.310Z,7.96
2018-12-22T09:53:07.597Z,8.02
2018-12-22T09:55:39.802Z,7.77
2018-12-22T09:58:11.797Z,7.59
2018-12-22T10:00:43.925Z,7.60
2018-12-22T10:03:15.766Z,7.59
2018-12-22T10:05:47.330Z,7.43
2018-12-22T10:08:19.892Z,7.33
2018-12-22T10:13:42.091Z,7.29
2018-12-22T10:16:12.556Z,7.29
2018-12-22T10:18:47.192Z,7.30
2018-12-22T10:21:18.846Z,7.25
2018-12-22T10:23:51.270Z,7.28
2018-12-22T10:26:23.315Z,7.30
2018-12-22T10:28:55.809Z,7.25
2018-12-22T10:31:27.788Z,7.31
2018-12-22T10:34:00.006Z,7.27
2018-12-22T10:36:32.146Z,7.22
2018-12-22T10:39:06.113Z,7.22
2018-12-22T10:41:37.727Z,7.13
2018-12-22T10:44:09.428Z,7.07
2018-12-22T10:46:42.397Z,7.00
2018-12-22T10:49:14.384Z,6.93
2018-12-22T10:51:47.001Z,6.93
2018-12-22T10:54:21.155Z,6.89
2018-12-22T10:56:53.469Z,6.95
2018-12-22T10:59:25.594Z,6.88
2018-12-22T11:01:57.851Z,6.86
2018-12-22T11:04:29.524Z,6.75
2018-12-22T11:06:59.852Z,6.70
2018-12-22T11:09:32.041Z,6.67
2018-12-22T11:12:04.461Z,6.71
2018-12-22T11:14:36.395Z,6.74
2018-12-22T11:17:09.025Z,6.91
2018-12-22T11:19:42.679Z,6.87
2018-12-22T11:22:15.073Z,6.85
2018-12-22T11:24:47.262Z,6.84
2018-12-22T11:27:19.624Z,6.78
2018-12-22T11:29:51.688Z,6.77
2018-12-22T11:32:23.845Z,6.78
2018-12-22T11:34:55.828Z,6.78
2018-12-22T11:37:27.882Z,6.75
2018-12-22T11:40:00.304Z,6.74
2018-12-22T11:42:32.350Z,6.71
2018-12-22T11:45:04.784Z,6.66
2018-12-22T11:47:43.761Z,6.64
2018-12-22T11:50:20.130Z,6.66
2018-12-22T11:52:52.041Z,6.61
2018-12-22T11:55:26.326Z,6.60
2018-12-22T11:57:57.971Z,6.52
2018-12-22T12:00:30.311Z,6.49
2018-12-22T12:03:02.324Z,6.45
2018-12-22T12:05:34.832Z,6.43
2018-12-22T12:08:09.364Z,6.42
2018-12-22T12:10:41.953Z,6.40
2018-12-22T12:13:13.892Z,6.40
2018-12-22T12:15:50.470Z,6.39
2018-12-22T12:18:28.023Z,6.35
2018-12-22T12:21:08.530Z,6.36
2018-12-22T12:23:48.038Z,6.37
2018-12-22T12:26:21.989Z,6.36
2018-12-22T12:28:54.902Z,6.32
2018-12-22T12:31:27.540Z,6.29
2018-12-22T12:33:59.670Z,6.27
2018-12-22T12:36:31.891Z,6.22
2018-12-22T12:39:06.928Z,6.22
2018-12-22T12:41:38.487Z,6.18
2018-12-22T12:44:10.727Z,6.20
2018-12-22T12:46:46.581Z,6.19
2018-12-22T12:49:19.865Z,6.15
2018-12-22T12:51:52.042Z,6.16
2018-12-22T12:54:24.705Z,6.17
2018-12-22T12:56:58.618Z,6.20
2018-12-22T12:59:30.911Z,6.19
2018-12-22T13:02:04.871Z,6.21
2018-12-22T13:04:36.909Z,6.22
2018-12-22T13:07:09.063Z,6.21
2018-12-22T13:09:43.247Z,6.27
2018-12-22T13:12:19.327Z,6.32
2018-12-22T13:14:52.245Z,6.29
2018-12-22T13:17:24.473Z,6.28
2018-12-22T13:19:56.506Z,6.30
2018-12-22T13:22:28.153Z,6.29
2018-12-22T13:24:58.500Z,6.30
2018-12-22T13:27:31.269Z,6.28
2018-12-22T13:30:04.555Z,6.19
2018-12-22T13:32:37.053Z,6.24
2018-12-22T13:35:09.678Z,6.29
2018-12-22T13:37:42.067Z,6.32
2018-12-22T13:40:15.553Z,6.41
2018-12-22T13:42:49.305Z,6.39
2018-12-22T13:45:21.392Z,6.42
2018-12-22T13:47:54.523Z,6.46
2018-12-22T13:50:26.746Z,6.48
2018-12-22T13:53:00.562Z,6.43
2018-12-22T13:55:32.920Z,6.42
2018-12-22T13:58:04.900Z,6.53
2018-12-22T14:00:42.160Z,6.50
2018-12-22T14:03:18.284Z,6.48
2018-12-22T14:05:50.730Z,6.52
2018-12-22T14:08:20.804Z,6.44
2018-12-22T14:10:53.087Z,6.45
2018-12-22T14:13:23.457Z,6.45
2018-12-22T14:16:00.140Z,6.47
2018-12-22T14:18:37.073Z,6.59
2018-12-22T14:21:09.690Z,6.64
2018-12-22T14:23:51.127Z,6.68
2018-12-22T14:26:22.956Z,6.79
2018-12-22T14:28:55.184Z,6.81
2018-12-22T14:31:27.508Z,6.86
2018-12-22T14:34:02.457Z,6.89
2018-12-22T14:36:34.490Z,6.89
2018-12-22T14:56:39.450Z,6.95
2018-12-22T14:59:13.703Z,7.02
2018-12-22T15:01:51.214Z,6.99
2018-12-22T15:04:24.395Z,7.01
2018-12-22T15:06:55.989Z,7.01
2018-12-22T15:09:28.603Z,7.05
2018-12-22T15:12:01.581Z,7.03
2018-12-22T15:14:37.110Z,6.95
2018-12-22T15:23:04.250Z,7.05
2018-12-22T15:25:36.568Z,7.08
2018-12-22T15:28:08.735Z,7.07
2018-12-22T15:30:41.319Z,7.10
2018-12-22T15:33:13.449Z,7.14
2018-12-22T15:35:45.534Z,7.10
2018-12-22T15:38:18.042Z,7.10
2018-12-22T15:40:50.900Z,7.14
2018-12-22T15:43:22.834Z,7.15
2018-12-22T15:45:55.016Z,7.11
2018-12-22T15:48:27.135Z,7.06
2018-12-22T15:50:58.569Z,7.10
2018-12-22T15:53:30.480Z,7.09
2018-12-22T15:56:03.059Z,6.99
2018-12-22T15:58:33.189Z,7.04
2018-12-22T16:01:07.669Z,7.04
2018-12-22T16:03:39.585Z,7.10
2018-12-22T16:06:11.720Z,7.14
2018-12-22T16:08:43.716Z,7.11
2018-12-22T16:11:15.972Z,7.16
2018-12-22T16:13:48.211Z,7.13
2018-12-22T16:16:21.029Z,7.20
2018-12-22T16:18:52.976Z,7.23
2018-12-22T16:21:24.997Z,7.28
2018-12-22T16:23:57.357Z,7.34
2018-12-22T16:26:29.572Z,7.40
2018-12-22T16:29:14.088Z,7.43
2018-12-22T16:31:48.046Z,7.40
2018-12-22T16:34:19.924Z,7.44
2018-12-22T16:36:53.229Z,7.41
2018-12-22T16:39:25.555Z,7.48
2018-12-22T16:42:00.337Z,7.47
2018-12-22T16:44:31.995Z,7.50
2018-12-22T16:47:05.688Z,7.49
2018-12-22T16:49:38.423Z,7.48
2018-12-22T16:52:11.815Z,7.47
2018-12-22T16:54:45.014Z,7.50
2018-12-22T16:57:18.132Z,7.51
2018-12-22T16:59:52.095Z,7.49
2018-12-22T17:02:59.942Z,7.48
2018-12-22T17:05:33.542Z,7.51
2018-12-22T17:08:06.761Z,7.51
2018-12-22T17:10:42.693Z,7.54
2018-12-22T17:13:18.212Z,7.45
2018-12-22T17:15:56.809Z,7.46
2018-12-22T17:18:30.965Z,7.49
2018-12-22T17:21:43.582Z,7.51
2018-12-22T17:24:54.666Z,7.48
2018-12-22T17:27:28.195Z,7.45
2018-12-22T17:30:01.751Z,7.43
2018-12-22T17:32:39.087Z,7.44
2018-12-22T17:35:14.442Z,7.48
2018-12-22T17:37:47.585Z,7.58
2018-12-22T17:40:20.835Z,7.59
2018-12-22T17:42:54.068Z,7.62
2018-12-22T17:45:27.328Z,7.68
2018-12-22T17:47:59.972Z,7.69
2018-12-22T17:50:33.175Z,7.68
2018-12-22T17:53:09.041Z,7.72
2018-12-22T17:55:40.605Z,7.76
2018-12-22T17:58:13.476Z,7.75
2018-12-22T18:00:49.052Z,7.75
2018-12-22T18:03:27.523Z,7.69
2018-12-22T18:06:00.105Z,7.60
2018-12-22T18:08:32.842Z,7.49
2018-12-22T18:11:06.181Z,7.52
2018-12-22T18:13:39.328Z,7.54
2018-12-22T18:16:12.752Z,7.59
2018-12-22T18:18:46.154Z,7.65
2018-12-22T18:21:19.410Z,7.59
2018-12-22T18:23:54.806Z,7.67
2018-12-22T18:26:26.031Z,7.71
2018-12-22T18:28:59.239Z,7.67
2018-12-22T18:31:32.585Z,7.72
2018-12-22T18:34:05.930Z,7.73
2018-12-22T18:36:39.276Z,7.73
2018-12-22T18:39:12.742Z,7.71
2018-12-22T18:41:47.562Z,7.72
2018-12-22T18:44:20.156Z,7.73
2018-12-22T18:46:53.568Z,7.73
2018-12-22T18:49:26.482Z,7.74
2018-12-22T18:52:00.094Z,7.73
2018-12-22T18:54:33.169Z,7.74
2018-12-22T18:57:06.324Z,7.77
2018-12-22T18:59:41.382Z,7.86
2018-12-22T19:02:15.455Z,7.83
2018-12-22T19:07:20.254Z,7.87
2018-12-22T19:09:53.720Z,7.86
2018-12-22T19:12:29.106Z,7.81
2018-12-22T19:15:02.493Z,7.88
2018-12-22T19:17:35.301Z,7.83
2018-12-22T19:20:15.037Z,7.81
2018-12-22T19:22:48.286Z,7.92
2018-12-22T19:25:21.697Z,7.89
2018-12-22T19:27:54.852Z,7.92
2018-12-22T19:30:28.112Z,7.93
2018-12-22T19:33:01.340Z,7.97
2018-12-22T19:35:34.516Z,7.93
2018-12-22T19:38:07.567Z,7.95
2018-12-22T19:40:40.879Z,8.03
2018-12-22T19:43:14.049Z,7.99
2018-12-22T19:45:47.089Z,8.02
2018-12-22T19:48:20.551Z,7.92
2018-12-22T19:50:55.611Z,7.96
2018-12-22T19:53:28.884Z,7.93
2018-12-22T19:56:02.043Z,7.95
2018-12-22T19:58:35.703Z,7.95
2018-12-22T20:01:09.151Z,7.97
2018-12-22T20:03:42.434Z,8.02
2018-12-22T20:06:17.351Z,8.01
2018-12-22T20:08:50.425Z,7.93
2018-12-22T20:11:23.865Z,7.91
2018-12-22T20:13:56.896Z,7.76
2018-12-22T20:16:29.924Z,7.82
2018-12-22T20:19:03.351Z,7.74
2018-12-22T20:21:38.716Z,7.79
2018-12-22T20:24:12.054Z,7.81
2018-12-22T20:26:57.292Z,7.88
2018-12-22T20:29:30.494Z,7.86
2018-12-22T20:32:03.474Z,7.98
2018-12-22T20:34:36.581Z,7.96
2018-12-22T20:37:10.066Z,7.99
2018-12-22T20:39:42.895Z,7.97
2018-12-22T20:42:15.623Z,8.01
2018-12-22T20:44:48.725Z,8.04
2018-12-22T20:47:22.141Z,8.05
2018-12-22T20:49:55.431Z,8.08
2018-12-22T20:52:28.743Z,8.01
2018-12-22T20:55:01.635Z,8.01
2018-12-22T20:57:34.762Z,8.02
2018-12-22T21:00:08.373Z,8.06
2018-12-22T21:02:41.096Z,8.18
2018-12-22T21:05:14.258Z,8.14
2018-12-22T21:07:47.609Z,8.12
2018-12-22T21:10:21.485Z,8.09
2018-12-22T21:12:54.412Z,8.07
2018-12-22T21:15:29.068Z,8.07
2018-12-22T21:18:02.517Z,8.05
2018-12-22T21:20:35.763Z,8.06
2018-12-22T21:23:08.593Z,8.10
2018-12-22T21:25:41.838Z,8.13
2018-12-22T21:28:16.588Z,8.10
2018-12-22T21:30:49.821Z,8.14
2018-12-22T21:33:23.278Z,8.18
2018-12-22T21:35:58.884Z,8.21
2018-12-22T21:38:33.486Z,8.19
2018-12-22T21:41:06.799Z,8.20
2018-12-22T21:43:43.120Z,8.25
2018-12-22T21:46:16.606Z,8.19
2018-12-22T21:48:49.987Z,8.27
2018-12-22T21:51:23.921Z,8.12
2018-12-22T21:53:57.084Z,8.02
2018-12-22T21:56:30.386Z,8.10
2018-12-22T21:59:03.648Z,8.00
2018-12-22T22:01:36.921Z,8.10
2018-12-22T22:04:18.182Z,8.03
2018-12-22T22:06:55.653Z,8.06
2018-12-22T22:09:28.876Z,8.06
2018-12-22T22:12:02.460Z,8.09
2018-12-22T22:14:35.551Z,8.15
2018-12-22T22:17:09.966Z,8.09
2018-12-22T22:19:42.903Z,8.08
2018-12-22T22:22:16.563Z,8.09
2018-12-22T22:24:50.058Z,8.13
2018-12-22T22:30:21.023Z,8.18
2018-12-22T22:32:52.557Z,8.21
2018-12-22T22:35:25.634Z,8.28
2018-12-22T22:37:59.006Z,8.19
2018-12-22T22:40:32.157Z,8.23
2018-12-22T22:43:05.532Z,8.24
2018-12-22T22:45:39.503Z,8.23
2018-12-22T22:48:16.890Z,8.26
2018-12-22T22:50:52.935Z,8.22
2018-12-22T22:53:27.610Z,8.31
2018-12-22T22:56:03.070Z,8.33
2018-12-22T22:58:35.878Z,8.34
2018-12-22T23:01:09.306Z,8.33
2018-12-22T23:03:42.683Z,8.36
2018-12-22T23:06:22.752Z,8.50
2018-12-22T23:08:56.383Z,8.45
2018-12-22T23:11:29.425Z,8.43
2018-12-22T23:14:07.006Z,8.42
2018-12-22T23:16:42.732Z,8.40
2018-12-22T23:19:15.861Z,8.31
2018-12-22T23:21:49.063Z,8.30
2018-12-22T23:24:21.944Z,8.37
2018-12-22T23:26:57.368Z,8.30
2018-12-22T23:29:30.501Z,8.33
2018-12-22T23:32:03.615Z,8.29
2018-12-22T23:34:37.606Z,8.37
2018-12-22T23:37:11.112Z,8.39
2018-12-22T23:39:46.383Z,8.28
2018-12-22T23:42:20.000Z,8.28
2018-12-22T23:44:55.749Z,8.33
2018-12-22T23:47:28.612Z,8.40
2018-12-22T23:50:02.181Z,8.33
2018-12-22T23:52:36.106Z,8.31
2018-12-22T23:55:09.682Z,8.27
2018-12-22T23:57:43.729Z,8.31
